Aérodrome :
LOGIN :

S'inscrire | Disclaimer

   EN    FR    IT 

 










Légende :    VFR   VFR Marginal   IFR   IFR Intensif   IFR Très Intensif
Visi : 
Plafond : 
>= 8 km
>= 3000ft
5 à 8 km
1000 à 3000 ft
1500m à 5 km
500 à 1000 ft
800 à 1500m
200 à 500 ft
< 800m
< 200 ft
Symboles :   Orages  Brouillard  Fortes neiges  Fortes précipitations  Vent > 20 kt
SIGMETs :   Divers  Orages  Givrage  Turbulence  Onde Orograph.  Cendres Volcan.






- Altitude de l'aérodrome : 3 ft
- Code IATA : DHR


EHKD - Den Helder De Kooy

DERNIER METAR :
  • 210225Z AUTO 33007KT 290V010 9999 FEW024 SCT027 04/01 Q1033 BLU

METARs EXPIRÉS :
  • 210155Z AUTO 34007KT 290V020 9999 SCT048 SCT055 04/01 Q1033 BLU
  • 210136Z AUTO 33007KT 280V020 9999 FEW019 SCT025 BKN034 04/01 Q1033 BLU
  • 210128Z AUTO 33008KT 290V010 9999 -UP FEW018 SCT024 BKN034 04/01 Q1033 WHT
  • 210055Z AUTO 34008KT 290V020 9999 BKN047 BKN051 04/00 Q1033 BLU
  • 210025Z AUTO 33011KT 290V030 9999 FEW022 SCT027 BKN031 04/01 Q1033 BLU
  • 210001Z AUTO 33008KT 290V030 9999 FEW023 SCT027 05/00 Q1033 BLU

TAF TAF EHKD
Valide du 21 à 02h jusqu'au 21 à 14h UTC


210146Z 2102/2114 34012KT 9999 FEW020 SCT025
PROB40
TEMPO 2102/2109 4500 -SHRA FEW018 BKN025
PROB30
TEMPO 2102/2109 2000 -SHRASN SCT012 BKN020
TEMPO 2109/2114 4500 -RADZ -SHRA FEW010 BKN015



MET'MAP, la Météo Aéronautique d'un coup d'oeil ! - Copyright ORBIFLY Décembre 2007 - Disclaimer

ORBIFLY MET'MAP TEAM :

Programmation & Développement : Alexandra Zaïnal
Sur une idée originale de : Baudouin d'Aumeries
Assistance à la programmation : Marc-Olivier Méhu
Soutien technique & logistique : Manuel Goepfert

Contact : metmap@orbifly.com




SOURCES & CREDITS :

   NOAA